Sds Green — ICOK — position and weather

sailwx.info

Track history (hours):
 
Tides and Currents Weather Stations Pressure Air Temp Water Temp Dewpoint Dewpoint Depression Visibility Wind Speed Wind Dir Waves Ship Positions

Sds Green

Last reported at 2016-Aug-25 07:26 UTC. Time now 2016-Aug-30 18:55 UTC.
Position N 38°10' E 016°22'.

Length 108 m; draft 6.6 m.

Type: Cargo ship. MMSI: 247292200.

Date/timePositionNaut miles runAvg speedWind from/ knotsBaromVisibWave heightAir tempDewpointWater temp
2016-Aug-25 07:26N 38°10' E 016°22'27 9.5
2016-Aug-25 04:33N 37°52' E 015°56'10 9.6
2016-Aug-25 03:33N 37°53' E 015°43'9 9.2
2016-Aug-25 02:33N 38°00' E 015°36'1110.5
2016-Aug-25 01:33N 38°11' E 015°35'9 8.6
2016-Aug-25 00:34N 38°19' E 015°38'1110.8
2016-Aug-24 23:34N 38°27' E 015°29'1010.0
2016-Aug-24 22:33N 38°35' E 015°20'10 9.5
2016-Aug-24 21:33N 38°42' E 015°12'43510.1
2016-Aug-23 02:33N 42°18' E 006°55'2210.7
2016-Aug-23 00:32N 42°30' E 006°30'6810.5
2016-Aug-22 18:03N 43°07' E 005°12'611.2
2016-Aug-22 17:33N 43°10' E 005°06'1010.4
2016-Aug-22 16:33N 43°19' E 004°59'8 7.6
2016-Aug-22 15:33N 43°24' E 004°51'0 0.0
2016-Aug-22 14:25N 43°24' E 004°51'0 0.0
2016-Aug-22 13:31N 43°24' E 004°51'0 0.0
2016-Aug-22 12:31N 43°24' E 004°51'0 0.0
2016-Aug-22 11:31N 43°24' E 004°51'0 0.0
2016-Aug-22 10:31N 43°24' E 004°51'0 0.0
2016-Aug-22 09:28N 43°24' E 004°51'0 0.0
2016-Aug-22 08:31N 43°24' E 004°51'0 0.0
2016-Aug-22 07:31N 43°24' E 004°51'0 0.0
2016-Aug-22 06:28N 43°24' E 004°51'0 0.0
2016-Aug-22 05:31N 43°24' E 004°51'0 0.0
2016-Aug-22 04:31N 43°24' E 004°51'0 0.0
2016-Aug-22 03:31N 43°24' E 004°51'0 0.0
2016-Aug-22 02:31N 43°24' E 004°51'0 0.0
2016-Aug-22 01:28N 43°24' E 004°51'0 0.0
2016-Aug-22 00:31N 43°24' E 004°51'0 0.0
2016-Aug-21 23:31N 43°24' E 004°51'0 0.0
2016-Aug-21 22:31N 43°24' E 004°51'0 0.0
2016-Aug-21 21:31N 43°24' E 004°51'0 0.0
2016-Aug-21 20:31N 43°24' E 004°51'0 0.0
2016-Aug-21 19:31N 43°24' E 004°51'0 0.0
2016-Aug-21 18:31N 43°24' E 004°51'0 0.0
2016-Aug-21 17:31N 43°24' E 004°51'0 0.0
2016-Aug-21 16:31N 43°24' E 004°51'0 0.0
2016-Aug-21 15:31N 43°24' E 004°51'0 0.0
2016-Aug-21 14:31N 43°24' E 004°51'0 0.0
2016-Aug-21 13:31N 43°24' E 004°51'0 0.0
2016-Aug-21 12:31N 43°24' E 004°51'0 0.0
2016-Aug-21 11:31N 43°24' E 004°51'0 0.0
2016-Aug-21 10:31N 43°24' E 004°51'0 0.0
2016-Aug-21 09:31N 43°24' E 004°51'0 0.0
2016-Aug-21 08:31N 43°24' E 004°51'0 0.0
2016-Aug-21 07:31N 43°24' E 004°51'0 0.0
2016-Aug-21 06:31N 43°24' E 004°51'0 0.0
2016-Aug-21 05:31N 43°24' E 004°51'0 0.0
2016-Aug-21 04:31N 43°24' E 004°51'0 0.0
2016-Aug-21 03:31N 43°24' E 004°51'0 0.0
2016-Aug-21 02:31N 43°24' E 004°51'0 0.0
2016-Aug-21 01:31N 43°24' E 004°51'0 0.0
2016-Aug-21 00:28N 43°24' E 004°51'0 0.0
2016-Aug-20 23:31N 43°24' E 004°51'0 0.0
2016-Aug-20 22:31N 43°24' E 004°51'0 0.0
2016-Aug-20 21:31N 43°24' E 004°51'0 0.0
2016-Aug-20 20:31N 43°24' E 004°51'0 0.0
2016-Aug-20 19:31N 43°24' E 004°51'0 0.0
2016-Aug-20 18:28N 43°24' E 004°51'0 0.0
2016-Aug-20 17:31N 43°24' E 004°51'0 0.0
2016-Aug-20 16:31N 43°24' E 004°51'0 0.0
2016-Aug-20 15:31N 43°24' E 004°51'0 0.0
2016-Aug-20 14:31N 43°24' E 004°51'0 0.0
2016-Aug-20 13:31N 43°24' E 004°51'0 0.0
2016-Aug-20 12:31N 43°24' E 004°51'0 0.0
2016-Aug-20 11:31N 43°24' E 004°51'0 0.0
2016-Aug-20 10:31N 43°24' E 004°51'0 0.0
2016-Aug-20 09:31N 43°24' E 004°51'0 0.0
2016-Aug-20 08:31N 43°24' E 004°51'0 0.0
2016-Aug-20 07:31N 43°24' E 004°51'0 0.0
2016-Aug-20 06:28N 43°24' E 004°51'0 0.0
2016-Aug-20 05:28N 43°24' E 004°51'0 0.0
2016-Aug-20 04:31N 43°24' E 004°51'0 0.0
2016-Aug-20 03:31N 43°24' E 004°51'0 0.0
2016-Aug-20 02:31N 43°24' E 004°51'0 0.0
2016-Aug-20 01:31N 43°24' E 004°51'0 0.0
2016-Aug-20 00:31N 43°24' E 004°51'0 0.0
2016-Aug-19 23:31N 43°24' E 004°51'0 0.0
2016-Aug-19 22:31N 43°24' E 004°51'0 0.0
2016-Aug-19 21:31N 43°24' E 004°51'0 0.0
2016-Aug-19 20:31N 43°24' E 004°51'0 0.0
2016-Aug-19 19:28N 43°24' E 004°51'0 0.0
2016-Aug-19 18:28N 43°24' E 004°51'0 0.0
2016-Aug-19 17:31N 43°24' E 004°51'0 0.0
2016-Aug-19 16:31N 43°24' E 004°51'0 0.0
2016-Aug-19 15:31N 43°24' E 004°51'0 0.0
2016-Aug-19 14:28N 43°24' E 004°51'0 0.0
2016-Aug-19 13:28N 43°24' E 004°51'0 0.0
2016-Aug-19 12:31N 43°24' E 004°51'0 0.0
2016-Aug-19 11:31N 43°24' E 004°51'0 0.0
2016-Aug-19 10:31N 43°24' E 004°51'0 0.0
2016-Aug-19 09:25N 43°24' E 004°51'0 0.0
2016-Aug-19 08:31N 43°24' E 004°51'0 0.3
2016-Aug-19 07:33N 43°24' E 004°51'3 3.2
2016-Aug-19 06:33N 43°24' E 004°55'0 0.0
2016-Aug-19 05:33N 43°24' E 004°55'0 0.1
2016-Aug-19 04:33N 43°24' E 004°56'0 0.0
2016-Aug-19 03:33N 43°24' E 004°56'0 0.0
2016-Aug-19 02:33N 43°24' E 004°56'0 0.0
2016-Aug-19 01:33N 43°24' E 004°56'0 0.0
2016-Aug-19 00:33N 43°24' E 004°56'0 0.0
2016-Aug-18 23:33N 43°24' E 004°56'0 0.0
2016-Aug-18 22:30N 43°24' E 004°56'0 0.0
2016-Aug-18 21:33N 43°24' E 004°56'0 0.0
2016-Aug-18 20:33N 43°24' E 004°56'0 0.0
2016-Aug-18 19:33N 43°24' E 004°56'0 0.0
2016-Aug-18 18:33N 43°24' E 004°56'0 0.0
2016-Aug-18 17:33N 43°24' E 004°56'0 0.0
2016-Aug-18 16:33N 43°24' E 004°56'0 0.0
2016-Aug-18 15:33N 43°24' E 004°56'0 0.0
2016-Aug-18 14:33N 43°24' E 004°56'0 0.0
2016-Aug-18 13:33N 43°24' E 004°56'0 0.0
2016-Aug-18 12:33N 43°24' E 004°56'0 0.0
2016-Aug-18 11:33N 43°24' E 004°56'0 0.0
2016-Aug-18 10:33N 43°24' E 004°56'0 0.0
2016-Aug-18 09:33N 43°24' E 004°56'0 0.0
2016-Aug-18 08:30N 43°24' E 004°56'0 0.0
2016-Aug-18 07:33N 43°24' E 004°56'0 0.0
2016-Aug-18 06:33N 43°24' E 004°56'0 0.0
2016-Aug-18 05:33N 43°24' E 004°55'0 0.1
2016-Aug-18 04:33N 43°24' E 004°55'0 0.0
2016-Aug-18 03:27N 43°24' E 004°55'0 0.0
2016-Aug-18 02:33N 43°24' E 004°55'0 0.0
2016-Aug-18 01:33N 43°24' E 004°55'0 0.0
2016-Aug-18 00:33N 43°24' E 004°55'0 0.1
2016-Aug-17 23:33N 43°24' E 004°56'0 0.0
2016-Aug-17 22:33N 43°24' E 004°56'0 0.0
2016-Aug-17 21:33N 43°24' E 004°56'0 0.0
2016-Aug-17 20:33N 43°24' E 004°56'0 0.0
2016-Aug-17 19:33N 43°24' E 004°56'0 0.0
2016-Aug-17 18:33N 43°24' E 004°56'0 0.0
2016-Aug-17 17:33N 43°24' E 004°56'0 0.0
2016-Aug-17 16:33N 43°24' E 004°56'0 0.0
2016-Aug-17 15:33N 43°24' E 004°56'0 0.0
2016-Aug-17 14:33N 43°24' E 004°55'0 0.0
2016-Aug-17 13:33N 43°24' E 004°55'0 0.0
2016-Aug-17 12:33N 43°24' E 004°55'0 0.0
2016-Aug-17 11:33N 43°24' E 004°55'0 0.0
2016-Aug-17 10:33N 43°24' E 004°55'0 0.1
2016-Aug-17 09:33N 43°24' E 004°55'0 0.1
2016-Aug-17 08:33N 43°24' E 004°55'0 0.0
2016-Aug-17 07:33N 43°24' E 004°55'0 0.0
2016-Aug-17 06:33N 43°24' E 004°55'0 0.0
2016-Aug-17 05:33N 43°24' E 004°55'0 0.0
2016-Aug-17 04:30N 43°24' E 004°55'0 0.0
2016-Aug-17 03:33N 43°24' E 004°55'0 0.0
2016-Aug-17 02:33N 43°24' E 004°55'0 0.0
2016-Aug-17 01:33N 43°24' E 004°55'0 0.0
2016-Aug-17 00:33N 43°24' E 004°55'0 0.0
2016-Aug-16 23:33N 43°24' E 004°55'0 0.0
2016-Aug-16 22:33N 43°24' E 004°55'0 0.0
2016-Aug-16 21:33N 43°24' E 004°55'0 0.0
2016-Aug-16 20:33N 43°24' E 004°55'0 0.0
2016-Aug-16 19:33N 43°24' E 004°55'0 0.0
2016-Aug-16 18:33N 43°24' E 004°55'0 0.0
2016-Aug-16 17:33N 43°24' E 004°55'0 0.0
2016-Aug-16 16:30N 43°24' E 004°55'0 0.0
2016-Aug-16 15:33N 43°24' E 004°55'0 0.0
2016-Aug-16 14:33N 43°24' E 004°55'0 0.0
2016-Aug-16 13:33N 43°24' E 004°55'2 2.1
2016-Aug-16 12:33N 43°23' E 004°57'1211.7
2016-Aug-16 11:30N 43°11' E 005°02'4511.3
2016-Aug-16 07:33N 42°27' E 004°58'1211.4
2016-Aug-16 06:33N 42°15' E 004°57'2411.4
2016-Aug-16 04:26N 41°51' E 004°54'1011.4
2016-Aug-16 03:33N 41°41' E 004°53'1211.1
2016-Aug-16 02:27N 41°29' E 004°52'2410.9
2016-Aug-16 00:17N 41°05' E 004°50'1011.1
2016-Aug-15 23:23N 40°55' E 004°49'70 7.7
2016-Aug-15 14:18N 39°45' E 004°42'26 5.4
2016-Aug-15 09:26N 39°19' E 004°49'9 9.9
2016-Aug-15 08:31N 39°11' E 004°53'  
Track history (hours):
 
Tides and Currents Weather Stations Pressure Air Temp Water Temp Dewpoint Dewpoint Depression Visibility Wind Speed Wind Dir Waves Ship Positions

Sds Green

Last reported at 2016-Aug-25 07:26 UTC. Time now 2016-Aug-30 18:55 UTC.
Position N 38°10' E 016°22'.

Length 108 m; draft 6.6 m.

Type: Cargo ship. MMSI: 247292200.

Date/timePositionNaut miles runAvg speedWind from/ knotsBaromVisibWave heightAir tempDewpointWater temp
2016-Aug-25 07:26N 38°10' E 016°22'27 9.5
2016-Aug-25 04:33N 37°52' E 015°56'10 9.6
2016-Aug-25 03:33N 37°53' E 015°43'9 9.2
2016-Aug-25 02:33N 38°00' E 015°36'1110.5
2016-Aug-25 01:33N 38°11' E 015°35'9 8.6
2016-Aug-25 00:34N 38°19' E 015°38'1110.8
2016-Aug-24 23:34N 38°27' E 015°29'1010.0
2016-Aug-24 22:33N 38°35' E 015°20'10 9.5
2016-Aug-24 21:33N 38°42' E 015°12'43510.1
2016-Aug-23 02:33N 42°18' E 006°55'2210.7
2016-Aug-23 00:32N 42°30' E 006°30'6810.5
2016-Aug-22 18:03N 43°07' E 005°12'611.2
2016-Aug-22 17:33N 43°10' E 005°06'1010.4
2016-Aug-22 16:33N 43°19' E 004°59'8 7.6
2016-Aug-22 15:33N 43°24' E 004°51'0 0.0
2016-Aug-22 14:25N 43°24' E 004°51'0 0.0
2016-Aug-22 13:31N 43°24' E 004°51'0 0.0
2016-Aug-22 12:31N 43°24' E 004°51'0 0.0
2016-Aug-22 11:31N 43°24' E 004°51'0 0.0
2016-Aug-22 10:31N 43°24' E 004°51'0 0.0
2016-Aug-22 09:28N 43°24' E 004°51'0 0.0
2016-Aug-22 08:31N 43°24' E 004°51'0 0.0
2016-Aug-22 07:31N 43°24' E 004°51'0 0.0
2016-Aug-22 06:28N 43°24' E 004°51'0 0.0
2016-Aug-22 05:31N 43°24' E 004°51'0 0.0
2016-Aug-22 04:31N 43°24' E 004°51'0 0.0
2016-Aug-22 03:31N 43°24' E 004°51'0 0.0
2016-Aug-22 02:31N 43°24' E 004°51'0 0.0
2016-Aug-22 01:28N 43°24' E 004°51'0 0.0
2016-Aug-22 00:31N 43°24' E 004°51'0 0.0
2016-Aug-21 23:31N 43°24' E 004°51'0 0.0
2016-Aug-21 22:31N 43°24' E 004°51'0 0.0
2016-Aug-21 21:31N 43°24' E 004°51'0 0.0
2016-Aug-21 20:31N 43°24' E 004°51'0 0.0
2016-Aug-21 19:31N 43°24' E 004°51'0 0.0
2016-Aug-21 18:31N 43°24' E 004°51'0 0.0
2016-Aug-21 17:31N 43°24' E 004°51'0 0.0
2016-Aug-21 16:31N 43°24' E 004°51'0 0.0
2016-Aug-21 15:31N 43°24' E 004°51'0 0.0
2016-Aug-21 14:31N 43°24' E 004°51'0 0.0
2016-Aug-21 13:31N 43°24' E 004°51'0 0.0
2016-Aug-21 12:31N 43°24' E 004°51'0 0.0
2016-Aug-21 11:31N 43°24' E 004°51'0 0.0
2016-Aug-21 10:31N 43°24' E 004°51'0 0.0
2016-Aug-21 09:31N 43°24' E 004°51'0 0.0
2016-Aug-21 08:31N 43°24' E 004°51'0 0.0
2016-Aug-21 07:31N 43°24' E 004°51'0 0.0
2016-Aug-21 06:31N 43°24' E 004°51'0 0.0
2016-Aug-21 05:31N 43°24' E 004°51'0 0.0
2016-Aug-21 04:31N 43°24' E 004°51'0 0.0
2016-Aug-21 03:31N 43°24' E 004°51'0 0.0
2016-Aug-21 02:31N 43°24' E 004°51'0 0.0
2016-Aug-21 01:31N 43°24' E 004°51'0 0.0
2016-Aug-21 00:28N 43°24' E 004°51'0 0.0
2016-Aug-20 23:31N 43°24' E 004°51'0 0.0
2016-Aug-20 22:31N 43°24' E 004°51'0 0.0
2016-Aug-20 21:31N 43°24' E 004°51'0 0.0
2016-Aug-20 20:31N 43°24' E 004°51'0 0.0
2016-Aug-20 19:31N 43°24' E 004°51'0 0.0
2016-Aug-20 18:28N 43°24' E 004°51'0 0.0
2016-Aug-20 17:31N 43°24' E 004°51'0 0.0
2016-Aug-20 16:31N 43°24' E 004°51'0 0.0
2016-Aug-20 15:31N 43°24' E 004°51'0 0.0
2016-Aug-20 14:31N 43°24' E 004°51'0 0.0
2016-Aug-20 13:31N 43°24' E 004°51'0 0.0
2016-Aug-20 12:31N 43°24' E 004°51'0 0.0
2016-Aug-20 11:31N 43°24' E 004°51'0 0.0
2016-Aug-20 10:31N 43°24' E 004°51'0 0.0
2016-Aug-20 09:31N 43°24' E 004°51'0 0.0
2016-Aug-20 08:31N 43°24' E 004°51'0 0.0
2016-Aug-20 07:31N 43°24' E 004°51'0 0.0
2016-Aug-20 06:28N 43°24' E 004°51'0 0.0
2016-Aug-20 05:28N 43°24' E 004°51'0 0.0
2016-Aug-20 04:31N 43°24' E 004°51'0 0.0
2016-Aug-20 03:31N 43°24' E 004°51'0 0.0
2016-Aug-20 02:31N 43°24' E 004°51'0 0.0
2016-Aug-20 01:31N 43°24' E 004°51'0 0.0
2016-Aug-20 00:31N 43°24' E 004°51'0 0.0
2016-Aug-19 23:31N 43°24' E 004°51'0 0.0
2016-Aug-19 22:31N 43°24' E 004°51'0 0.0
2016-Aug-19 21:31N 43°24' E 004°51'0 0.0
2016-Aug-19 20:31N 43°24' E 004°51'0 0.0
2016-Aug-19 19:28N 43°24' E 004°51'0 0.0
2016-Aug-19 18:28N 43°24' E 004°51'0 0.0
2016-Aug-19 17:31N 43°24' E 004°51'0 0.0
2016-Aug-19 16:31N 43°24' E 004°51'0 0.0
2016-Aug-19 15:31N 43°24' E 004°51'0 0.0
2016-Aug-19 14:28N 43°24' E 004°51'0 0.0
2016-Aug-19 13:28N 43°24' E 004°51'0 0.0
2016-Aug-19 12:31N 43°24' E 004°51'0 0.0
2016-Aug-19 11:31N 43°24' E 004°51'0 0.0
2016-Aug-19 10:31N 43°24' E 004°51'0 0.0
2016-Aug-19 09:25N 43°24' E 004°51'0 0.0
2016-Aug-19 08:31N 43°24' E 004°51'0 0.3
2016-Aug-19 07:33N 43°24' E 004°51'3 3.2
2016-Aug-19 06:33N 43°24' E 004°55'0 0.0
2016-Aug-19 05:33N 43°24' E 004°55'0 0.1
2016-Aug-19 04:33N 43°24' E 004°56'0 0.0
2016-Aug-19 03:33N 43°24' E 004°56'0 0.0
2016-Aug-19 02:33N 43°24' E 004°56'0 0.0
2016-Aug-19 01:33N 43°24' E 004°56'0 0.0
2016-Aug-19 00:33N 43°24' E 004°56'0 0.0
2016-Aug-18 23:33N 43°24' E 004°56'0 0.0
2016-Aug-18 22:30N 43°24' E 004°56'0 0.0
2016-Aug-18 21:33N 43°24' E 004°56'0 0.0
2016-Aug-18 20:33N 43°24' E 004°56'0 0.0
2016-Aug-18 19:33N 43°24' E 004°56'0 0.0
2016-Aug-18 18:33N 43°24' E 004°56'0 0.0
2016-Aug-18 17:33N 43°24' E 004°56'0 0.0
2016-Aug-18 16:33N 43°24' E 004°56'0 0.0
2016-Aug-18 15:33N 43°24' E 004°56'0 0.0
2016-Aug-18 14:33N 43°24' E 004°56'0 0.0
2016-Aug-18 13:33N 43°24' E 004°56'0 0.0
2016-Aug-18 12:33N 43°24' E 004°56'0 0.0
2016-Aug-18 11:33N 43°24' E 004°56'0 0.0
2016-Aug-18 10:33N 43°24' E 004°56'0 0.0
2016-Aug-18 09:33N 43°24' E 004°56'0 0.0
2016-Aug-18 08:30N 43°24' E 004°56'0 0.0
2016-Aug-18 07:33N 43°24' E 004°56'0 0.0
2016-Aug-18 06:33N 43°24' E 004°56'0 0.0
2016-Aug-18 05:33N 43°24' E 004°55'0 0.1
2016-Aug-18 04:33N 43°24' E 004°55'0 0.0
2016-Aug-18 03:27N 43°24' E 004°55'0 0.0
2016-Aug-18 02:33N 43°24' E 004°55'0 0.0
2016-Aug-18 01:33N 43°24' E 004°55'0 0.0
2016-Aug-18 00:33N 43°24' E 004°55'0 0.1
2016-Aug-17 23:33N 43°24' E 004°56'0 0.0
2016-Aug-17 22:33N 43°24' E 004°56'0 0.0
2016-Aug-17 21:33N 43°24' E 004°56'0 0.0
2016-Aug-17 20:33N 43°24' E 004°56'0 0.0
2016-Aug-17 19:33N 43°24' E 004°56'0 0.0
2016-Aug-17 18:33N 43°24' E 004°56'0 0.0
2016-Aug-17 17:33N 43°24' E 004°56'0 0.0
2016-Aug-17 16:33N 43°24' E 004°56'0 0.0
2016-Aug-17 15:33N 43°24' E 004°56'0 0.0
2016-Aug-17 14:33N 43°24' E 004°55'0 0.0
2016-Aug-17 13:33N 43°24' E 004°55'0 0.0
2016-Aug-17 12:33N 43°24' E 004°55'0 0.0
2016-Aug-17 11:33N 43°24' E 004°55'0 0.0
2016-Aug-17 10:33N 43°24' E 004°55'0 0.1
2016-Aug-17 09:33N 43°24' E 004°55'0 0.1
2016-Aug-17 08:33N 43°24' E 004°55'0 0.0
2016-Aug-17 07:33N 43°24' E 004°55'0 0.0
2016-Aug-17 06:33N 43°24' E 004°55'0 0.0
2016-Aug-17 05:33N 43°24' E 004°55'0 0.0
2016-Aug-17 04:30N 43°24' E 004°55'0 0.0
2016-Aug-17 03:33N 43°24' E 004°55'0 0.0
2016-Aug-17 02:33N 43°24' E 004°55'0 0.0
2016-Aug-17 01:33N 43°24' E 004°55'0 0.0
2016-Aug-17 00:33N 43°24' E 004°55'0 0.0
2016-Aug-16 23:33N 43°24' E 004°55'0 0.0
2016-Aug-16 22:33N 43°24' E 004°55'0 0.0
2016-Aug-16 21:33N 43°24' E 004°55'0 0.0
2016-Aug-16 20:33N 43°24' E 004°55'0 0.0
2016-Aug-16 19:33N 43°24' E 004°55'0 0.0
2016-Aug-16 18:33N 43°24' E 004°55'0 0.0
2016-Aug-16 17:33N 43°24' E 004°55'0 0.0
2016-Aug-16 16:30N 43°24' E 004°55'0 0.0
2016-Aug-16 15:33N 43°24' E 004°55'0 0.0
2016-Aug-16 14:33N 43°24' E 004°55'0 0.0
2016-Aug-16 13:33N 43°24' E 004°55'2 2.1
2016-Aug-16 12:33N 43°23' E 004°57'1211.7
2016-Aug-16 11:30N 43°11' E 005°02'4511.3
2016-Aug-16 07:33N 42°27' E 004°58'1211.4
2016-Aug-16 06:33N 42°15' E 004°57'2411.4
2016-Aug-16 04:26N 41°51' E 004°54'1011.4
2016-Aug-16 03:33N 41°41' E 004°53'1211.1
2016-Aug-16 02:27N 41°29' E 004°52'2410.9
2016-Aug-16 00:17N 41°05' E 004°50'1011.1
2016-Aug-15 23:23N 40°55' E 004°49'70 7.7
2016-Aug-15 14:18N 39°45' E 004°42'26 5.4
2016-Aug-15 09:26N 39°19' E 004°49'9 9.9
2016-Aug-15 08:31N 39°11' E 004°53'  

Dump ship's entire track history